Flight Track Log - Related Links

Times and Time Zones

All times are in EDT time to prevent confusion due to time zone crossing. See the AAL832 flight status page for this flight to view local times or setup timezone preferences in your user account.

Time Position Orientation Groundspeed Altitude Reporting Facility
EDT Latitude Longitude Course Direction KTS MPH feet Rate Location/Type
Sat 05:43:56 PM 41.9333 -87.9167 169° South 188 216 2,100  Level Chicago TRACON
Sat 05:44:56 PM 41.8667 -87.9000 169° South 250 288 3,900 2,132 Climbing Chicago TRACON
Sat 05:45:57 PM 41.8078 -87.9042 183° South 274 315 6,400 2,927 Climbing Chicago Center
Sat 05:46:00 PM 41.6605 -87.7191 155° Southeast  Level Estimated
Sat 05:46:59 PM 41.7150 -87.8667 163° South 300 345 9,900  Level Chicago Center
Sat 05:47:00 PM 41.5533 -87.6571 156° South  Level Estimated
Sat 05:48:00 PM 41.4462 -87.5952 159° South  Level Estimated
Sat 05:48:00 PM 41.6425 -87.7936 143° Southeast 320 368 12,300  Level Chicago Center
Sat 05:49:00 PM 41.3390 -87.5335 169° South  Level Estimated
Sat 05:49:02 PM 41.5575 -87.7053 142° Southeast 384 442 13,900  Level Chicago Center
Sat 05:50:04 PM 41.4661 -87.6131 143° Southeast 403 464 16,400 2,323 Climbing Chicago Center
Sat 05:51:06 PM 41.3564 -87.5608 160° South 424 488 18,700 2,049 Climbing Chicago Center
Sat 05:52:07 PM 41.2353 -87.5392 172° South 434 499 20,600 1,805 Climbing Chicago Center
Sat 05:53:09 PM 41.1122 -87.5094 170° South 446 513 22,400 1,645 Climbing Chicago Center
Sat 05:54:11 PM 40.9872 -87.4744 168° South 455 524 24,000 1,403 Climbing Chicago Center
Sat 05:55:13 PM 40.8364 -87.4311 168° South 461 531 25,300 1,268 Climbing Chicago Center
Sat 05:56:14 PM 40.7197 -87.3564 154° Southeast 469 540 26,600 1,024 Climbing Chicago Center
Sat 05:57:16 PM 40.6006 -87.2697 151° Southeast 486 559 27,400 919 Climbing Chicago Center
Sat 05:58:18 PM 40.4772 -87.1814 151° Southeast 501 577 28,500 1,742 Climbing Chicago Center
Sat 05:59:20 PM 40.3386 -87.1244 163° South 491 565 31,000 2,049 Climbing Chicago Center
Sat 06:00:21 PM 40.2094 -87.0872 168° South 476 548 32,700 1,268 Climbing Chicago Center
Sat 06:01:23 PM 40.0889 -87.0158 156° South 478 550 33,600 919 Climbing Chicago Center
Sat 06:02:12 PM 39.9931 -86.9447 150° Southeast 489 563 34,400 1,145 Climbing Indianapolis Center
Sat 06:03:13 PM 39.8756 -86.8567 150° Southeast 490 564 35,700 780 Climbing Indianapolis Center
Sat 06:04:15 PM 39.7356 -86.7525 150° Southeast 488 562 36,000 146 Climbing Indianapolis Center
Sat 06:05:16 PM 39.6183 -86.6658 150° Southeast 492 566 36,000  Level Indianapolis Center
Sat 06:06:18 PM 39.5008 -86.5797 151° Southeast 491 565 36,000 439 Level Indianapolis Center
Sat 06:07:19 PM 39.3864 -86.4953 150° Southeast 483 556 36,900 488 Climbing Indianapolis Center
Sat 06:08:21 PM 39.2694 -86.4100 151° Southeast 485 558 37,000 49 Climbing Indianapolis Center
Sat 06:09:22 PM 39.1308 -86.3092 151° Southeast 482 555 37,000  Level Indianapolis Center
Sat 06:10:24 PM 39.0153 -86.2253 151° Southeast 480 552 37,000  Level Indianapolis Center
Sat 06:11:25 PM 38.8964 -86.1536 155° Southeast 475 547 37,000  Level Indianapolis Center
Sat 06:12:27 PM 38.7706 -86.1072 164° South 469 540 37,000  Level Indianapolis Center
Sat 06:13:28 PM 38.6464 -86.0581 163° South 465 535 37,000  Level Indianapolis Center
Sat 06:14:30 PM 38.5219 -86.0097 163° South 463 533 37,000  Level Indianapolis Center
Sat 06:15:31 PM 38.3978 -85.9611 163° South 464 534 37,000  Level Indianapolis Center
Sat 06:16:33 PM 38.2722 -85.9131 163° South 466 536 37,000  Level Indianapolis Center
Sat 06:17:34 PM 38.1472 -85.8661 164° South 465 535 37,000  Level Indianapolis Center
Sat 06:18:36 PM 38.0219 -85.8169 163° South 467 537 37,000  Level Indianapolis Center
Sat 06:19:37 PM 37.8950 -85.7681 163° South 473 544 37,000  Level Indianapolis Center
Sat 06:20:38 PM 37.7419 -85.7103 163° South 475 547 37,000  Level Indianapolis Center
Sat 06:21:40 PM 37.6119 -85.6606 163° South 480 552 37,000  Level Indianapolis Center
Sat 06:22:41 PM 37.4806 -85.6136 164° South 485 558 37,000  Level Indianapolis Center
Sat 06:23:43 PM 37.3531 -85.5631 163° South 483 556 37,000  Level Indianapolis Center
Sat 06:24:44 PM 37.2214 -85.5119 163° South 483 556 37,000  Level Indianapolis Center
Sat 06:25:45 PM 37.0969 -85.4667 164° South 483 556 37,000  Level Indianapolis Center
Sat 06:26:47 PM 36.9517 -85.4111 163° South 481 554 37,000  Level Indianapolis Center
Sat 06:27:48 PM 36.8211 -85.3636 164° South 488 562 37,000  Level Indianapolis Center
Sat 06:28:49 PM 36.6939 -85.3153 163° South 479 551 37,000  Level Indianapolis Center
Sat 06:29:51 PM 36.5661 -85.2683 164° South 478 550 37,000  Level Indianapolis Center
Sat 06:30:52 PM 36.4383 -85.2211 163° South 479 551 37,000  Level Indianapolis Center
Sat 06:31:53 PM 36.3100 -85.1747 164° South 481 554 37,000  Level Indianapolis Center
Sat 06:32:55 PM 36.1822 -85.1275 163° South 480 552 37,000  Level Indianapolis Center
Sat 06:33:56 PM 36.0575 -85.0828 164° South 473 544 37,000  Level Indianapolis Center
Sat 06:34:57 PM 35.9247 -85.0339 163° South 474 545 37,000  Level Indianapolis Center
Sat 06:35:20 PM 35.8647 -85.0150 166° South 473 544 37,000  Level Atlanta Center
Sat 06:36:20 PM 35.7294 -84.9700 165° South 478 550 37,000  Level Atlanta Center
Sat 06:37:20 PM 35.6086 -84.9225 162° South 472 543 37,000  Level Atlanta Center
Sat 06:38:20 PM 35.4839 -84.8778 164° South 467 537 37,000  Level Atlanta Center
Sat 06:39:20 PM 35.3611 -84.8333 164° South 467 537 37,000  Level Atlanta Center
Sat 06:40:20 PM 35.2361 -84.7889 164° South 467 537 37,000  Level Atlanta Center
Sat 06:41:20 PM 35.1111 -84.7447 164° South 467 537 37,000  Level Atlanta Center
Sat 06:42:20 PM 34.9842 -84.6978 163° South 467 537 37,000  Level Atlanta Center
Sat 06:43:20 PM 34.8550 -84.6539 164° South 473 544 37,000  Level Atlanta Center
Sat 06:44:20 PM 34.7322 -84.6100 164° South 473 544 37,000  Level Atlanta Center
Sat 06:45:20 PM 34.6133 -84.5639 162° South 461 531 37,000  Level Atlanta Center
Sat 06:46:20 PM 34.4883 -84.5203 164° South 456 525 37,000  Level Atlanta Center
Sat 06:47:20 PM 34.3778 -84.4817 164° South 456 525 37,000  Level Atlanta Center
Sat 06:48:20 PM 34.2569 -84.4383 163° South 456 525 37,000  Level Atlanta Center
Sat 06:49:20 PM 34.1361 -84.3953 164° South 456 525 37,000  Level Atlanta Center
Sat 06:50:20 PM 34.0067 -84.3594 167° South 461 531 37,000  Level Atlanta Center
Sat 06:51:20 PM 33.8753 -84.3117 163° South 461 531 37,000  Level Atlanta Center
Sat 06:52:20 PM 33.7522 -84.2711 165° South 461 531 37,000  Level Atlanta Center
Sat 06:53:20 PM 33.6272 -84.2258 163° South 461 531 37,000  Level Atlanta Center
Sat 06:54:20 PM 33.5042 -84.1833 164° South 455 524 37,000  Level Atlanta Center
Sat 06:55:20 PM 33.3831 -84.1433 165° South 455 524 37,000  Level Atlanta Center
Sat 06:56:20 PM 33.2600 -84.1008 164° South 455 524 37,000  Level Atlanta Center
Sat 06:57:20 PM 33.1556 -84.0636 163° South 455 524 37,000  Level Atlanta Center
Sat 06:58:20 PM 33.0239 -84.0214 165° South 449 517 37,000  Level Atlanta Center
Sat 06:59:20 PM 32.9175 -83.9819 163° South 449 517 37,000  Level Atlanta Center
Sat 07:00:20 PM 32.7964 -83.9425 165° South 449 517 37,000  Level Atlanta Center
Sat 07:01:20 PM 32.6753 -83.9031 165° South 454 522 37,000  Level Atlanta Center
Sat 07:02:20 PM 32.5522 -83.8614 164° South 454 522 37,000  Level Atlanta Center
Sat 07:04:47 PM 32.2431 -83.7572 164° South 450 518 37,000  Level Jacksonville Center
Sat 07:05:47 PM 32.1222 -83.7169 164° South 455 524 37,000  Level Jacksonville Center
Sat 07:06:47 PM 32.0033 -83.6767 164° South 455 524 37,000  Level Jacksonville Center
Sat 07:07:47 PM 31.8825 -83.6339 163° South 455 524 37,000  Level Jacksonville Center
Sat 07:08:47 PM 31.7761 -83.5964 163° South 447 514 37,000  Level Jacksonville Center
Sat 07:09:47 PM 31.6492 -83.5564 165° South 454 522 37,000  Level Jacksonville Center
Sat 07:10:47 PM 31.5281 -83.5189 165° South 459 528 37,000  Level Jacksonville Center
Sat 07:11:47 PM 31.4094 -83.4817 165° South 459 528 37,000  Level Jacksonville Center
Sat 07:12:47 PM 31.2883 -83.4444 165° South 453 521 37,000  Level Jacksonville Center
Sat 07:13:47 PM 31.1675 -83.4050 164° South 453 521 37,000  Level Jacksonville Center
Sat 07:14:47 PM 31.0467 -83.3653 164° South 453 521 37,000  Level Jacksonville Center
Sat 07:15:47 PM 30.9256 -83.3286 165° South 453 521 37,000  Level Jacksonville Center
Sat 07:16:47 PM 30.8131 -83.2892 163° South 453 521 37,000 -50 Level Jacksonville Center
Sat 07:17:47 PM 30.6942 -83.2356 159° South 448 516 36,900  Descending Jacksonville Center
Sat 07:18:47 PM 30.5794 -83.1797 157° South 443 510 37,000 50 Climbing Jacksonville Center
Sat 07:19:47 PM 30.4647 -83.1192 156° South 448 516 37,000  Level Jacksonville Center
Sat 07:20:47 PM 30.3500 -83.0633 157° South 454 522 37,000  Level Jacksonville Center
Sat 07:21:47 PM 30.2353 -83.0031 156° South 454 522 37,000  Level Jacksonville Center
Sat 07:22:47 PM 30.1183 -82.9478 158° South 454 522 37,000 -50 Level Jacksonville Center
Sat 07:23:47 PM 29.9889 -82.8878 158° South 461 531 36,900  Descending Jacksonville Center
Sat 07:24:47 PM 29.8656 -82.8494 165° South 461 531 37,000  Climbing Jacksonville Center
Sat 07:25:47 PM 29.7403 -82.8447 178° South 463 533 36,900  Descending Jacksonville Center
Sat 07:26:47 PM 29.6131 -82.8375 177° South 463 533 37,000  Climbing Jacksonville Center
Sat 07:27:47 PM 29.4878 -82.8306 177° South 458 527 36,900  Descending Jacksonville Center
Sat 07:28:47 PM 29.3606 -82.8186 175° South 458 527 37,000  Climbing Jacksonville Center
Sat 07:29:47 PM 29.2372 -82.8117 177° South 458 527 36,900 -50 Descending Jacksonville Center
Sat 07:30:47 PM 29.1161 -82.8069 178° South 452 520 36,900 50 Level Jacksonville Center
Sat 07:31:47 PM 28.9931 -82.7975 176° South 452 520 37,000 50 Climbing Jacksonville Center
Sat 07:32:47 PM 28.8678 -82.7931 178° South 452 520 37,000 -50 Level Jacksonville Center
Sat 07:33:47 PM 28.7425 -82.7861 177° South 452 520 36,900 -50 Descending Jacksonville Center
Sat 07:34:47 PM 28.6172 -82.7839 179° South 452 520 36,900 50 Level Jacksonville Center
Sat 07:35:47 PM 28.4922 -82.7744 176° South 452 520 37,000 34 Climbing Jacksonville Center
Sat 07:37:42 PM 28.2481 -82.7594 177° South 459 528 37,000  Level Miami Center
Sat 07:38:42 PM 28.1211 -82.7528 177° South 459 528 37,000  Level Miami Center
Sat 07:39:42 PM 28.0069 -82.7444 176° South 459 528 37,000  Level Miami Center
Sat 07:40:42 PM 27.8800 -82.7356 176° South 464 534 37,000  Level Miami Center
Sat 07:41:42 PM 27.7531 -82.7292 177° South 454 522 37,000  Level Miami Center
Sat 07:42:42 PM 27.6281 -82.7250 178° South 449 517 37,000  Level Miami Center
Sat 07:43:42 PM 27.4844 -82.7153 177° South 458 527 37,000  Level Miami Center
Sat 07:44:42 PM 27.3575 -82.7067 177° South 458 527 37,000 -50 Level Miami Center
Sat 07:45:42 PM 27.2406 -82.6564 159° South 458 527 36,900 -300 Descending Miami Center
Sat 07:46:42 PM 27.1286 -82.5853 151° Southeast 453 521 36,400 -650 Descending Miami Center
Sat 07:47:42 PM 27.0289 -82.5197 150° Southeast 453 521 35,600 -950 Descending Miami Center
Sat 07:48:42 PM 26.9047 -82.4417 151° Southeast 461 531 34,500 -850 Descending Miami Center
Sat 07:49:42 PM 26.7947 -82.3714 150° Southeast 466 536 33,900 -800 Descending Miami Center
Sat 07:50:42 PM 26.6806 -82.3008 151° Southeast 466 536 32,900 -950 Descending Miami Center
Sat 07:51:42 PM 26.5664 -82.2236 149° Southeast 471 542 32,000 -950 Descending Miami Center
Sat 07:52:42 PM 26.4700 -82.1194 136° Southeast 476 548 31,000 -950 Descending Miami Center
Sat 07:53:42 PM 26.3714 -82.0156 137° Southeast 484 557 30,100 -1,350 Descending Miami Center
Sat 07:54:42 PM 26.2850 -81.9192 135° Southeast 495 570 28,300 -2,250 Descending Miami Center
Sat 07:55:42 PM 26.1908 -81.8108 134° Southeast 490 564 25,600 -2,700 Descending Miami Center
Sat 07:56:42 PM 26.1386 -81.6817 114° Southeast 467 537 22,900 -2,600 Descending Miami Center
Sat 07:57:42 PM 26.0947 -81.5572 111° Southeast 449 517 20,400 -2,450 Descending Miami Center
Sat 07:58:42 PM 26.0547 -81.4356 110° East 425 489 18,000 -2,400 Descending Miami Center
Sat 07:59:42 PM 26.0122 -81.3206 112° Southeast 409 471 15,600 -2,496 Descending Miami Center
Sat 08:00:35 PM 25.9736 -81.2175 113° Southeast 385 443 13,300 -2,529 Descending Miami Center
Sat 08:01:24 PM 25.9431 -81.1239 110° East 372 428 11,300 -2,149 Descending Miami Center
Sat 08:01:42 PM 25.9394 -81.1031 101° East 377 434 10,900 -1,279 Descending Miami Center
Sat 08:02:25 PM 25.9272 -81.0194 99° East 340 391 10,000 -900 Descending Miami Center
Sat 08:02:42 PM 25.9278 -80.9989 88° East 356 410 10,000 -600 Level Miami Center
Sat 08:03:25 PM 25.9256 -80.9247 92° East 289 333 9,400 -900 Descending Miami Center
Sat 08:03:42 PM 25.9261 -80.9086 88° East 323 372 9,100 -1,347 Descending Miami Center
Sat 08:04:14 PM 25.9236 -80.8531 93° East 276 318 8,300 -1,400 Descending Miami Center
Sat 08:04:42 PM 25.9200 -80.8231 98° East 295 339 7,700 -1,574 Descending Miami Center
Sat 08:05:15 PM 25.9111 -80.7697 100° East 275 316 6,700 -1,600 Descending Miami Center
Sat 08:05:42 PM 25.9100 -80.7372 92° East 279 321 6,100 -1,562 Descending Miami Center
Sat 08:06:28 PM 25.8972 -80.6628 101° East 280 322 4,800 -1,350 Descending Miami Center
Sat 08:07:42 PM 25.8892 -80.5681 95° East 274 315 3,400 -931 Descending Miami Center
Sat 08:08:24 PM 25.8781 -80.5075 102° East 260 299 3,000 -400 Descending Miami Center
Sat 08:08:42 PM 25.8806 -80.4939 78° East 268 308 3,000  Level Miami Center

Login

Don't have an account? Register now (free) for customized features, flight alerts, and more!